sensor_id;sensor_type;location;lat;lon;timestamp;P1;P2;P0
29460;PMS7003;16428;47.836;35.106;2023-05-27T00:02:18;5.25;5.25;3.50
29460;PMS7003;16428;47.836;35.106;2023-05-27T00:04:45;15.00;15.00;11.25
29460;PMS7003;16428;47.836;35.106;2023-05-27T00:07:13;14.00;14.00;10.75
29460;PMS7003;16428;47.836;35.106;2023-05-27T00:09:40;12.50;12.50;10.50
29460;PMS7003;16428;47.836;35.106;2023-05-27T00:12:07;16.50;15.50;9.50
29460;PMS7003;16428;47.836;35.106;2023-05-27T00:14:34;15.50;15.50;11.75
29460;PMS7003;16428;47.836;35.106;2023-05-27T00:17:02;13.75;13.50;10.00
29460;PMS7003;16428;47.836;35.106;2023-05-27T00:19:30;13.50;13.50;11.50
29460;PMS7003;16428;47.836;35.106;2023-05-27T00:21:57;13.00;12.00;9.75
29460;PMS7003;16428;47.836;35.106;2023-05-27T00:24:24;14.00;14.00;12.00
29460;PMS7003;16428;47.836;35.106;2023-05-27T00:26:51;13.00;13.00;10.25
29460;PMS7003;16428;47.836;35.106;2023-05-27T00:29:19;15.75;15.75;11.25
29460;PMS7003;16428;47.836;35.106;2023-05-27T00:31:46;13.75;13.75;12.00
29460;PMS7003;16428;47.836;35.106;2023-05-27T00:34:13;13.25;12.75;11.00
29460;PMS7003;16428;47.836;35.106;2023-05-27T00:36:41;16.50;16.25;12.75
29460;PMS7003;16428;47.836;35.106;2023-05-27T00:39:08;18.75;16.75;12.75
29460;PMS7003;16428;47.836;35.106;2023-05-27T00:41:35;16.50;15.00;12.75
29460;PMS7003;16428;47.836;35.106;2023-05-27T00:44:03;18.50;17.00;13.00
29460;PMS7003;16428;47.836;35.106;2023-05-27T00:46:30;12.50;11.50;9.25
29460;PMS7003;16428;47.836;35.106;2023-05-27T00:48:57;15.50;15.50;12.25
29460;PMS7003;16428;47.836;35.106;2023-05-27T00:51:24;17.25;17.25;12.50
29460;PMS7003;16428;47.836;35.106;2023-05-27T00:53:51;14.75;12.50;9.25
29460;PMS7003;16428;47.836;35.106;2023-05-27T00:56:19;19.75;17.25;14.00
29460;PMS7003;16428;47.836;35.106;2023-05-27T00:58:47;16.00;16.00;12.00
29460;PMS7003;16428;47.836;35.106;2023-05-27T01:01:15;15.25;13.25;11.50
29460;PMS7003;16428;47.836;35.106;2023-05-27T01:03:42;14.00;12.75;9.75
29460;PMS7003;16428;47.836;35.106;2023-05-27T01:11:34;10.75;10.75;9.50
29460;PMS7003;16428;47.836;35.106;2023-05-27T01:14:13;20.25;20.25;15.75
29460;PMS7003;16428;47.836;35.106;2023-05-27T01:16:41;17.25;17.25;13.00
29460;PMS7003;16428;47.836;35.106;2023-05-27T01:19:15;18.25;18.25;13.50
29460;PMS7003;16428;47.836;35.106;2023-05-27T01:21:51;20.25;19.25;16.50
29460;PMS7003;16428;47.836;35.106;2023-05-27T01:24:21;20.75;20.00;15.50
29460;PMS7003;16428;47.836;35.106;2023-05-27T01:26:48;18.50;18.50;16.25
29460;PMS7003;16428;47.836;35.106;2023-05-27T01:29:16;18.00;18.00;16.75
29460;PMS7003;16428;47.836;35.106;2023-05-27T01:31:47;23.50;20.00;16.50
29460;PMS7003;16428;47.836;35.106;2023-05-27T01:34:17;20.50;20.50;17.00
29460;PMS7003;16428;47.836;35.106;2023-05-27T01:36:49;18.50;18.50;15.25
29460;PMS7003;16428;47.836;35.106;2023-05-27T01:39:22;20.25;19.25;16.00
29460;PMS7003;16428;47.836;35.106;2023-05-27T01:41:49;20.25;17.50;15.50
29460;PMS7003;16428;47.836;35.106;2023-05-27T01:44:19;18.25;18.25;15.00
29460;PMS7003;16428;47.836;35.106;2023-05-27T01:46:48;21.50;21.50;17.50
29460;PMS7003;16428;47.836;35.106;2023-05-27T01:49:15;17.50;17.50;14.50
29460;PMS7003;16428;47.836;35.106;2023-05-27T01:51:42;23.50;21.00;17.25
29460;PMS7003;16428;47.836;35.106;2023-05-27T01:54:10;24.00;21.00;15.75
29460;PMS7003;16428;47.836;35.106;2023-05-27T01:56:37;26.75;21.00;17.50
29460;PMS7003;16428;47.836;35.106;2023-05-27T01:59:05;23.25;21.00;16.75
29460;PMS7003;16428;47.836;35.106;2023-05-27T02:01:33;26.75;23.50;18.25
29460;PMS7003;16428;47.836;35.106;2023-05-27T02:04:01;25.00;25.00;19.25
29460;PMS7003;16428;47.836;35.106;2023-05-27T02:06:28;22.25;21.50;16.25
29460;PMS7003;16428;47.836;35.106;2023-05-27T02:08:56;23.75;20.75;16.00
29460;PMS7003;16428;47.836;35.106;2023-05-27T02:11:23;23.25;21.00;15.75
29460;PMS7003;16428;47.836;35.106;2023-05-27T02:13:50;22.75;18.75;13.75
29460;PMS7003;16428;47.836;35.106;2023-05-27T02:16:19;29.00;20.75;15.00
29460;PMS7003;16428;47.836;35.106;2023-05-27T02:18:48;20.50;20.50;16.00
29460;PMS7003;16428;47.836;35.106;2023-05-27T02:21:15;26.00;23.25;16.25
29460;PMS7003;16428;47.836;35.106;2023-05-27T02:23:43;23.25;20.50;17.25
29460;PMS7003;16428;47.836;35.106;2023-05-27T02:26:10;20.25;20.25;16.50
29460;PMS7003;16428;47.836;35.106;2023-05-27T02:28:37;21.25;20.00;15.00
29460;PMS7003;16428;47.836;35.106;2023-05-27T02:31:04;24.50;23.00;17.00
29460;PMS7003;16428;47.836;35.106;2023-05-27T02:33:32;27.75;23.75;18.75
29460;PMS7003;16428;47.836;35.106;2023-05-27T02:36:01;21.50;20.25;17.25
29460;PMS7003;16428;47.836;35.106;2023-05-27T02:38:28;22.00;22.00;17.00
29460;PMS7003;16428;47.836;35.106;2023-05-27T02:40:57;21.00;20.25;16.50
29460;PMS7003;16428;47.836;35.106;2023-05-27T02:43:25;25.75;23.00;19.00
29460;PMS7003;16428;47.836;35.106;2023-05-27T02:45:52;27.25;26.00;21.00
29460;PMS7003;16428;47.836;35.106;2023-05-27T02:48:20;27.50;27.50;21.00
29460;PMS7003;16428;47.836;35.106;2023-05-27T02:50:47;23.75;22.75;19.50
29460;PMS7003;16428;47.836;35.106;2023-05-27T02:53:14;22.00;18.75;15.75
29460;PMS7003;16428;47.836;35.106;2023-05-27T02:55:41;27.00;25.75;18.75
29460;PMS7003;16428;47.836;35.106;2023-05-27T02:58:08;25.25;22.75;19.25
29460;PMS7003;16428;47.836;35.106;2023-05-27T03:00:37;26.75;24.00;18.50
29460;PMS7003;16428;47.836;35.106;2023-05-27T03:03:04;27.50;25.75;17.75
29460;PMS7003;16428;47.836;35.106;2023-05-27T03:05:34;25.75;25.75;19.50
29460;PMS7003;16428;47.836;35.106;2023-05-27T03:08:02;22.00;21.00;18.00
29460;PMS7003;16428;47.836;35.106;2023-05-27T03:10:33;29.50;26.00;19.75
29460;PMS7003;16428;47.836;35.106;2023-05-27T03:13:00;26.25;25.00;17.25
29460;PMS7003;16428;47.836;35.106;2023-05-27T03:15:28;23.50;23.50;17.75
29460;PMS7003;16428;47.836;35.106;2023-05-27T03:17:56;19.75;18.75;17.00
29460;PMS7003;16428;47.836;35.106;2023-05-27T03:20:24;25.25;25.25;18.25
29460;PMS7003;16428;47.836;35.106;2023-05-27T03:22:51;21.50;21.50;17.75
29460;PMS7003;16428;47.836;35.106;2023-05-27T03:25:18;21.50;19.75;16.00
29460;PMS7003;16428;47.836;35.106;2023-05-27T03:27:46;24.50;23.75;17.75
29460;PMS7003;16428;47.836;35.106;2023-05-27T03:30:13;25.50;24.50;16.75
29460;PMS7003;16428;47.836;35.106;2023-05-27T03:32:41;19.75;19.75;14.25
29460;PMS7003;16428;47.836;35.106;2023-05-27T03:35:08;22.25;22.00;16.50
29460;PMS7003;16428;47.836;35.106;2023-05-27T03:37:36;25.00;21.50;17.00
29460;PMS7003;16428;47.836;35.106;2023-05-27T03:40:03;18.25;18.25;14.25
29460;PMS7003;16428;47.836;35.106;2023-05-27T03:42:31;19.25;18.25;14.75
29460;PMS7003;16428;47.836;35.106;2023-05-27T03:44:58;23.75;21.00;17.25
29460;PMS7003;16428;47.836;35.106;2023-05-27T03:47:26;20.75;20.50;16.50
29460;PMS7003;16428;47.836;35.106;2023-05-27T03:49:53;22.00;18.25;15.25
29460;PMS7003;16428;47.836;35.106;2023-05-27T03:52:20;30.50;27.00;18.75
29460;PMS7003;16428;47.836;35.106;2023-05-27T03:54:47;29.00;27.25;20.50
29460;PMS7003;16428;47.836;35.106;2023-05-27T03:57:15;28.25;27.50;19.50
29460;PMS7003;16428;47.836;35.106;2023-05-27T03:59:43;25.25;23.75;18.25
29460;PMS7003;16428;47.836;35.106;2023-05-27T04:02:10;22.75;22.50;18.25
29460;PMS7003;16428;47.836;35.106;2023-05-27T04:04:38;31.75;26.75;19.25
29460;PMS7003;16428;47.836;35.106;2023-05-27T04:07:05;28.75;25.25;18.50
29460;PMS7003;16428;47.836;35.106;2023-05-27T04:09:32;28.00;22.00;17.50
29460;PMS7003;16428;47.836;35.106;2023-05-27T04:11:59;22.25;22.25;18.00
29460;PMS7003;16428;47.836;35.106;2023-05-27T04:14:26;25.50;25.00;19.00
29460;PMS7003;16428;47.836;35.106;2023-05-27T04:16:54;30.25;27.50;19.75
29460;PMS7003;16428;47.836;35.106;2023-05-27T04:19:21;30.00;28.75;21.50
29460;PMS7003;16428;47.836;35.106;2023-05-27T04:21:48;32.00;28.25;21.00
29460;PMS7003;16428;47.836;35.106;2023-05-27T04:24:15;26.00;25.00;18.75
29460;PMS7003;16428;47.836;35.106;2023-05-27T04:26:42;29.50;26.00;19.50
29460;PMS7003;16428;47.836;35.106;2023-05-27T04:33:37;25.75;23.50;19.25
29460;PMS7003;16428;47.836;35.106;2023-05-27T04:36:07;31.00;27.50;20.25
29460;PMS7003;16428;47.836;35.106;2023-05-27T04:38:35;32.50;28.50;20.00
29460;PMS7003;16428;47.836;35.106;2023-05-27T04:41:02;25.00;24.25;19.25
29460;PMS7003;16428;47.836;35.106;2023-05-27T04:43:30;27.00;26.25;20.00
29460;PMS7003;16428;47.836;35.106;2023-05-27T04:45:58;31.25;29.50;20.25
29460;PMS7003;16428;47.836;35.106;2023-05-27T04:48:26;25.00;25.00;18.50
29460;PMS7003;16428;47.836;35.106;2023-05-27T04:50:53;27.50;24.75;19.00
29460;PMS7003;16428;47.836;35.106;2023-05-27T04:53:21;30.75;26.50;19.75
29460;PMS7003;16428;47.836;35.106;2023-05-27T04:55:48;30.75;29.25;20.75
29460;PMS7003;16428;47.836;35.106;2023-05-27T04:58:16;31.00;28.00;19.25
29460;PMS7003;16428;47.836;35.106;2023-05-27T05:00:43;30.00;27.75;20.50
29460;PMS7003;16428;47.836;35.106;2023-05-27T05:03:20;29.75;28.50;21.25
29460;PMS7003;16428;47.836;35.106;2023-05-27T05:09:29;34.25;29.25;21.00
29460;PMS7003;16428;47.836;35.106;2023-05-27T05:11:57;28.00;27.75;19.25
29460;PMS7003;16428;47.836;35.106;2023-05-27T05:14:24;25.00;23.00;17.75
29460;PMS7003;16428;47.836;35.106;2023-05-27T05:16:51;27.25;25.00;18.75
29460;PMS7003;16428;47.836;35.106;2023-05-27T05:19:18;29.75;28.75;20.50
29460;PMS7003;16428;47.836;35.106;2023-05-27T05:21:45;31.75;26.50;19.25
29460;PMS7003;16428;47.836;35.106;2023-05-27T05:24:12;31.25;28.00;19.25
29460;PMS7003;16428;47.836;35.106;2023-05-27T05:26:40;26.75;26.25;19.00
29460;PMS7003;16428;47.836;35.106;2023-05-27T05:29:07;32.75;31.00;22.00
29460;PMS7003;16428;47.836;35.106;2023-05-27T05:31:35;31.50;29.00;21.00
29460;PMS7003;16428;47.836;35.106;2023-05-27T05:34:02;29.00;26.50;20.75
29460;PMS7003;16428;47.836;35.106;2023-05-27T05:36:29;20.75;20.75;17.50
29460;PMS7003;16428;47.836;35.106;2023-05-27T05:38:57;27.00;27.00;19.00
29460;PMS7003;16428;47.836;35.106;2023-05-27T05:41:24;30.00;27.00;19.75
29460;PMS7003;16428;47.836;35.106;2023-05-27T05:43:52;24.75;24.75;16.00
29460;PMS7003;16428;47.836;35.106;2023-05-27T05:46:19;27.00;25.75;18.25
29460;PMS7003;16428;47.836;35.106;2023-05-27T05:48:46;24.00;21.75;16.75
29460;PMS7003;16428;47.836;35.106;2023-05-27T05:51:16;22.25;22.25;16.00
29460;PMS7003;16428;47.836;35.106;2023-05-27T05:53:43;21.50;20.25;16.50
29460;PMS7003;16428;47.836;35.106;2023-05-27T05:56:11;22.50;20.00;16.25
29460;PMS7003;16428;47.836;35.106;2023-05-27T05:58:38;21.50;20.75;16.00
29460;PMS7003;16428;47.836;35.106;2023-05-27T06:01:05;21.20;21.20;15.80
29460;PMS7003;16428;47.836;35.106;2023-05-27T06:03:33;18.40;16.40;15.00
29460;PMS7003;16428;47.836;35.106;2023-05-27T06:06:00;25.00;19.50;15.50
29460;PMS7003;16428;47.836;35.106;2023-05-27T06:08:28;17.80;17.80;12.60
29460;PMS7003;16428;47.836;35.106;2023-05-27T06:10:55;20.80;20.80;14.20
29460;PMS7003;16428;47.836;35.106;2023-05-27T06:13:22;16.60;15.00;12.00
29460;PMS7003;16428;47.836;35.106;2023-05-27T06:15:50;20.00;18.40;14.60
29460;PMS7003;16428;47.836;35.106;2023-05-27T06:18:17;23.40;22.40;16.80
29460;PMS7003;16428;47.836;35.106;2023-05-27T06:20:45;17.80;17.20;12.40
29460;PMS7003;16428;47.836;35.106;2023-05-27T06:23:12;17.20;16.20;13.20
29460;PMS7003;16428;47.836;35.106;2023-05-27T06:25:39;17.40;16.80;12.40
29460;PMS7003;16428;47.836;35.106;2023-05-27T06:28:06;21.60;20.20;15.40
29460;PMS7003;16428;47.836;35.106;2023-05-27T06:30:35;19.60;17.60;14.40
29460;PMS7003;16428;47.836;35.106;2023-05-27T06:33:03;12.60;10.00;6.00
29460;PMS7003;16428;47.836;35.106;2023-05-27T06:35:31;14.60;14.60;11.40
29460;PMS7003;16428;47.836;35.106;2023-05-27T06:37:58;16.00;14.00;12.00
29460;PMS7003;16428;47.836;35.106;2023-05-27T06:40:26;14.00;14.00;11.20
29460;PMS7003;16428;47.836;35.106;2023-05-27T06:42:53;18.80;16.80;13.60
29460;PMS7003;16428;47.836;35.106;2023-05-27T06:45:21;17.00;16.00;13.00
29460;PMS7003;16428;47.836;35.106;2023-05-27T06:47:48;16.60;14.00;10.60
29460;PMS7003;16428;47.836;35.106;2023-05-27T06:50:15;12.80;12.60;10.00
29460;PMS7003;16428;47.836;35.106;2023-05-27T06:52:43;14.80;13.80;11.20
29460;PMS7003;16428;47.836;35.106;2023-05-27T06:55:10;14.40;14.40;12.60
29460;PMS7003;16428;47.836;35.106;2023-05-27T06:57:39;7.60;7.60;6.80
29460;PMS7003;16428;47.836;35.106;2023-05-27T07:00:06;25.00;17.80;14.60
29460;PMS7003;16428;47.836;35.106;2023-05-27T07:02:35;15.60;11.80;11.40
29460;PMS7003;16428;47.836;35.106;2023-05-27T07:05:02;19.20;15.80;13.60
29460;PMS7003;16428;47.836;35.106;2023-05-27T07:07:30;13.20;13.20;11.20
29460;PMS7003;16428;47.836;35.106;2023-05-27T07:09:57;15.60;14.80;12.40
29460;PMS7003;16428;47.836;35.106;2023-05-27T07:12:24;17.60;16.60;12.00
29460;PMS7003;16428;47.836;35.106;2023-05-27T07:14:51;10.40;10.00;8.00
29460;PMS7003;16428;47.836;35.106;2023-05-27T07:17:19;16.00;14.40;12.00
29460;PMS7003;16428;47.836;35.106;2023-05-27T07:19:46;18.80;16.00;12.60
29460;PMS7003;16428;47.836;35.106;2023-05-27T07:22:13;14.00;14.00;11.60
29460;PMS7003;16428;47.836;35.106;2023-05-27T07:24:40;13.80;11.80;9.80
29460;PMS7003;16428;47.836;35.106;2023-05-27T07:27:07;18.20;18.20;13.00
29460;PMS7003;16428;47.836;35.106;2023-05-27T07:29:36;16.80;15.20;11.40
29460;PMS7003;16428;47.836;35.106;2023-05-27T07:32:03;17.60;17.60;12.80
29460;PMS7003;16428;47.836;35.106;2023-05-27T07:34:31;17.00;14.80;12.20
29460;PMS7003;16428;47.836;35.106;2023-05-27T07:36:58;18.00;15.80;12.00
29460;PMS7003;16428;47.836;35.106;2023-05-27T07:39:25;13.80;11.40;8.40
29460;PMS7003;16428;47.836;35.106;2023-05-27T07:41:53;13.60;13.60;11.00
29460;PMS7003;16428;47.836;35.106;2023-05-27T07:44:20;12.20;12.20;10.80
29460;PMS7003;16428;47.836;35.106;2023-05-27T07:46:48;16.20;16.20;10.40
29460;PMS7003;16428;47.836;35.106;2023-05-27T07:49:15;14.00;13.00;10.00
29460;PMS7003;16428;47.836;35.106;2023-05-27T07:51:42;14.80;14.80;11.80
29460;PMS7003;16428;47.836;35.106;2023-05-27T07:54:09;12.00;11.60;10.00
29460;PMS7003;16428;47.836;35.106;2023-05-27T07:56:36;16.60;14.60;11.40
29460;PMS7003;16428;47.836;35.106;2023-05-27T07:59:03;14.40;14.40;11.00
29460;PMS7003;16428;47.836;35.106;2023-05-27T08:01:31;16.00;16.00;10.20
29460;PMS7003;16428;47.836;35.106;2023-05-27T08:04:00;11.80;11.40;8.60
29460;PMS7003;16428;47.836;35.106;2023-05-27T08:06:38;15.80;12.80;10.00
29460;PMS7003;16428;47.836;35.106;2023-05-27T08:09:06;15.80;13.40;10.80
29460;PMS7003;16428;47.836;35.106;2023-05-27T08:11:34;13.00;13.00;10.40
29460;PMS7003;16428;47.836;35.106;2023-05-27T08:14:02;16.00;15.00;10.00
29460;PMS7003;16428;47.836;35.106;2023-05-27T08:16:29;16.40;14.60;11.20
29460;PMS7003;16428;47.836;35.106;2023-05-27T08:18:56;12.20;11.80;10.40
29460;PMS7003;16428;47.836;35.106;2023-05-27T08:21:23;14.20;13.40;10.20
29460;PMS7003;16428;47.836;35.106;2023-05-27T08:23:50;13.40;13.40;10.40
29460;PMS7003;16428;47.836;35.106;2023-05-27T08:26:17;9.40;9.40;7.60
29460;PMS7003;16428;47.836;35.106;2023-05-27T08:28:45;13.00;11.80;9.80
29460;PMS7003;16428;47.836;35.106;2023-05-27T08:31:12;12.20;11.60;9.40
29460;PMS7003;16428;47.836;35.106;2023-05-27T08:33:41;14.80;11.80;9.40
29460;PMS7003;16428;47.836;35.106;2023-05-27T08:36:08;13.80;12.40;10.40
29460;PMS7003;16428;47.836;35.106;2023-05-27T08:38:36;14.60;10.60;8.40
29460;PMS7003;16428;47.836;35.106;2023-05-27T08:41:03;14.00;9.40;7.60
29460;PMS7003;16428;47.836;35.106;2023-05-27T08:43:31;12.20;12.20;10.00
29460;PMS7003;16428;47.836;35.106;2023-05-27T08:46:01;14.00;12.00;10.00
29460;PMS7003;16428;47.836;35.106;2023-05-27T08:48:28;11.80;11.80;8.60
29460;PMS7003;16428;47.836;35.106;2023-05-27T08:50:56;9.80;9.80;7.80
29460;PMS7003;16428;47.836;35.106;2023-05-27T08:53:23;12.00;12.00;9.00
29460;PMS7003;16428;47.836;35.106;2023-05-27T08:55:51;12.20;12.20;10.60
29460;PMS7003;16428;47.836;35.106;2023-05-27T08:58:25;8.20;7.00;5.40
29460;PMS7003;16428;47.836;35.106;2023-05-27T09:00:54;8.40;8.40;7.00
29460;PMS7003;16428;47.836;35.106;2023-05-27T09:03:22;8.80;8.80;7.60
29460;PMS7003;16428;47.836;35.106;2023-05-27T09:05:50;6.60;6.60;5.80
29460;PMS7003;16428;47.836;35.106;2023-05-27T09:08:17;9.40;9.40;8.00
29460;PMS7003;16428;47.836;35.106;2023-05-27T09:10:45;9.00;9.00;7.80
29460;PMS7003;16428;47.836;35.106;2023-05-27T09:13:12;8.00;7.40;6.60
29460;PMS7003;16428;47.836;35.106;2023-05-27T09:15:41;14.40;12.20;10.00
29460;PMS7003;16428;47.836;35.106;2023-05-27T09:18:08;10.40;10.40;8.80
29460;PMS7003;16428;47.836;35.106;2023-05-27T09:20:38;11.20;9.80;8.20
29460;PMS7003;16428;47.836;35.106;2023-05-27T09:23:06;9.80;9.80;8.00
29460;PMS7003;16428;47.836;35.106;2023-05-27T09:25:35;7.80;7.40;6.80
29460;PMS7003;16428;47.836;35.106;2023-05-27T09:28:04;13.60;10.00;8.60
29460;PMS7003;16428;47.836;35.106;2023-05-27T09:30:31;10.80;8.40;7.80
29460;PMS7003;16428;47.836;35.106;2023-05-27T09:33:02;11.00;9.00;7.80
29460;PMS7003;16428;47.836;35.106;2023-05-27T09:35:30;11.80;9.40;7.00
29460;PMS7003;16428;47.836;35.106;2023-05-27T09:38:07;17.40;16.40;13.40
29460;PMS7003;16428;47.836;35.106;2023-05-27T09:40:35;9.80;9.80;9.00
29460;PMS7003;16428;47.836;35.106;2023-05-27T09:43:04;10.60;10.60;8.60
29460;PMS7003;16428;47.836;35.106;2023-05-27T09:45:31;13.20;11.00;8.00
29460;PMS7003;16428;47.836;35.106;2023-05-27T09:48:00;9.40;9.40;8.40
29460;PMS7003;16428;47.836;35.106;2023-05-27T09:50:28;7.60;7.60;5.60
29460;PMS7003;16428;47.836;35.106;2023-05-27T09:52:57;8.40;7.00;6.00
29460;PMS7003;16428;47.836;35.106;2023-05-27T09:55:37;10.80;9.20;7.60
29460;PMS7003;16428;47.836;35.106;2023-05-27T09:58:06;9.20;9.20;8.00
29460;PMS7003;16428;47.836;35.106;2023-05-27T10:00:34;12.80;10.80;8.00
29460;PMS7003;16428;47.836;35.106;2023-05-27T10:03:04;11.20;9.00;7.80
29460;PMS7003;16428;47.836;35.106;2023-05-27T10:05:33;15.20;11.60;8.00
29460;PMS7003;16428;47.836;35.106;2023-05-27T10:08:01;10.20;8.80;7.60
29460;PMS7003;16428;47.836;35.106;2023-05-27T10:10:31;12.80;9.60;6.80
29460;PMS7003;16428;47.836;35.106;2023-05-27T10:13:00;16.40;12.20;9.00
29460;PMS7003;16428;47.836;35.106;2023-05-27T10:15:29;5.40;5.40;4.00
29460;PMS7003;16428;47.836;35.106;2023-05-27T10:17:59;9.60;9.60;6.80
29460;PMS7003;16428;47.836;35.106;2023-05-27T10:20:32;8.60;8.60;6.40
29460;PMS7003;16428;47.836;35.106;2023-05-27T10:23:19;8.60;8.00;6.00
29460;PMS7003;16428;47.836;35.106;2023-05-27T10:26:01;9.60;9.00;7.80
29460;PMS7003;16428;47.836;35.106;2023-05-27T10:28:33;8.60;8.60;7.60
29460;PMS7003;16428;47.836;35.106;2023-05-27T10:31:07;8.20;8.20;6.80
29460;PMS7003;16428;47.836;35.106;2023-05-27T10:33:38;22.60;20.20;14.80
29460;PMS7003;16428;47.836;35.106;2023-05-27T10:36:07;15.20;10.80;8.60
29460;PMS7003;16428;47.836;35.106;2023-05-27T10:38:36;9.00;9.00;7.40
29460;PMS7003;16428;47.836;35.106;2023-05-27T10:41:05;10.60;9.00;7.60
29460;PMS7003;16428;47.836;35.106;2023-05-27T10:43:33;8.20;8.20;7.40
29460;PMS7003;16428;47.836;35.106;2023-05-27T10:48:30;8.60;8.60;7.80
29460;PMS7003;16428;47.836;35.106;2023-05-27T10:51:00;9.80;9.00;7.80
29460;PMS7003;16428;47.836;35.106;2023-05-27T10:53:27;9.40;9.20;6.80
29460;PMS7003;16428;47.836;35.106;2023-05-27T10:55:57;9.00;9.00;7.20
29460;PMS7003;16428;47.836;35.106;2023-05-27T10:58:26;9.20;7.80;6.60
29460;PMS7003;16428;47.836;35.106;2023-05-27T11:00:54;8.20;8.20;6.20
29460;PMS7003;16428;47.836;35.106;2023-05-27T11:03:26;10.00;10.00;8.60
29460;PMS7003;16428;47.836;35.106;2023-05-27T11:05:58;8.80;8.80;6.60
29460;PMS7003;16428;47.836;35.106;2023-05-27T11:08:30;7.40;7.40;7.00
29460;PMS7003;16428;47.836;35.106;2023-05-27T11:13:34;8.40;8.40;6.40
29460;PMS7003;16428;47.836;35.106;2023-05-27T11:16:03;11.80;8.40;7.00
29460;PMS7003;16428;47.836;35.106;2023-05-27T11:18:39;10.60;8.20;7.20
29460;PMS7003;16428;47.836;35.106;2023-05-27T11:21:09;9.40;9.40;7.20
29460;PMS7003;16428;47.836;35.106;2023-05-27T11:23:42;9.00;9.00;6.40
29460;PMS7003;16428;47.836;35.106;2023-05-27T11:26:11;11.60;11.60;10.00
29460;PMS7003;16428;47.836;35.106;2023-05-27T11:28:53;14.40;11.60;10.60
29460;PMS7003;16428;47.836;35.106;2023-05-27T11:31:28;14.40;12.60;10.20
29460;PMS7003;16428;47.836;35.106;2023-05-27T11:33:58;17.60;16.60;12.40
29460;PMS7003;16428;47.836;35.106;2023-05-27T11:36:26;22.00;20.20;15.80
29460;PMS7003;16428;47.836;35.106;2023-05-27T11:38:57;14.80;14.00;11.40
29460;PMS7003;16428;47.836;35.106;2023-05-27T11:41:26;16.20;15.60;12.00
29460;PMS7003;16428;47.836;35.106;2023-05-27T11:46:35;16.20;16.20;12.40
29460;PMS7003;16428;47.836;35.106;2023-05-27T11:49:04;18.00;16.00;13.00
29460;PMS7003;16428;47.836;35.106;2023-05-27T11:51:34;24.40;22.60;17.00
29460;PMS7003;16428;47.836;35.106;2023-05-27T11:54:03;19.00;18.00;13.80
29460;PMS7003;16428;47.836;35.106;2023-05-27T11:56:31;19.20;18.20;14.00
29460;PMS7003;16428;47.836;35.106;2023-05-27T11:58:59;17.00;17.00;11.80
29460;PMS7003;16428;47.836;35.106;2023-05-27T12:01:26;18.80;17.00;12.80
29460;PMS7003;16428;47.836;35.106;2023-05-27T12:03:53;20.00;16.80;14.20
29460;PMS7003;16428;47.836;35.106;2023-05-27T12:06:21;21.40;17.40;13.20
29460;PMS7003;16428;47.836;35.106;2023-05-27T12:08:49;16.40;13.40;11.00
29460;PMS7003;16428;47.836;35.106;2023-05-27T12:11:16;12.20;12.20;11.80
29460;PMS7003;16428;47.836;35.106;2023-05-27T12:13:43;16.60;13.40;11.00
29460;PMS7003;16428;47.836;35.106;2023-05-27T12:16:10;10.40;10.40;8.60
29460;PMS7003;16428;47.836;35.106;2023-05-27T12:18:38;12.60;11.40;9.00
29460;PMS7003;16428;47.836;35.106;2023-05-27T12:21:08;16.80;16.00;12.00
29460;PMS7003;16428;47.836;35.106;2023-05-27T12:23:36;9.80;7.20;7.00
29460;PMS7003;16428;47.836;35.106;2023-05-27T12:26:03;14.20;11.20;8.40
29460;PMS7003;16428;47.836;35.106;2023-05-27T12:28:30;15.20;13.60;11.00
29460;PMS7003;16428;47.836;35.106;2023-05-27T12:30:57;15.20;15.20;12.40
29460;PMS7003;16428;47.836;35.106;2023-05-27T12:33:25;18.60;14.20;12.60
29460;PMS7003;16428;47.836;35.106;2023-05-27T12:35:52;12.00;11.60;9.00
29460;PMS7003;16428;47.836;35.106;2023-05-27T12:38:19;19.00;17.60;12.40
29460;PMS7003;16428;47.836;35.106;2023-05-27T12:40:46;14.40;13.80;11.60
29460;PMS7003;16428;47.836;35.106;2023-05-27T12:43:16;17.00;15.00;12.00
29460;PMS7003;16428;47.836;35.106;2023-05-27T12:45:45;18.20;14.80;11.20
29460;PMS7003;16428;47.836;35.106;2023-05-27T12:48:13;11.60;11.60;9.00
29460;PMS7003;16428;47.836;35.106;2023-05-27T12:50:40;13.80;12.80;10.80
29460;PMS7003;16428;47.836;35.106;2023-05-27T12:53:07;12.00;9.80;9.00
29460;PMS7003;16428;47.836;35.106;2023-05-27T12:55:36;11.60;11.60;10.60
29460;PMS7003;16428;47.836;35.106;2023-05-27T12:58:04;11.60;11.60;10.00
29460;PMS7003;16428;47.836;35.106;2023-05-27T13:00:31;16.00;12.00;9.20
29460;PMS7003;16428;47.836;35.106;2023-05-27T13:03:00;11.60;11.00;8.60
29460;PMS7003;16428;47.836;35.106;2023-05-27T13:05:27;10.00;9.20;7.00
29460;PMS7003;16428;47.836;35.106;2023-05-27T13:07:56;37.75;34.50;24.50
29460;PMS7003;16428;47.836;35.106;2023-05-27T13:10:26;9.40;9.20;7.00
29460;PMS7003;16428;47.836;35.106;2023-05-27T13:12:54;13.20;12.60;10.00
29460;PMS7003;16428;47.836;35.106;2023-05-27T13:15:22;14.40;10.00;8.80
29460;PMS7003;16428;47.836;35.106;2023-05-27T13:17:51;9.60;9.60;9.00
29460;PMS7003;16428;47.836;35.106;2023-05-27T13:20:20;10.20;7.80;7.00
29460;PMS7003;16428;47.836;35.106;2023-05-27T13:22:49;9.60;7.80;6.80
29460;PMS7003;16428;47.836;35.106;2023-05-27T13:25:17;11.00;11.00;9.00
29460;PMS7003;16428;47.836;35.106;2023-05-27T13:27:44;13.80;13.80;11.40
29460;PMS7003;16428;47.836;35.106;2023-05-27T13:30:12;16.60;12.60;9.60
29460;PMS7003;16428;47.836;35.106;2023-05-27T13:32:41;11.60;11.60;9.20
29460;PMS7003;16428;47.836;35.106;2023-05-27T13:35:09;14.60;14.60;12.00
29460;PMS7003;16428;47.836;35.106;2023-05-27T13:37:38;12.80;12.80;10.40
29460;PMS7003;16428;47.836;35.106;2023-05-27T13:40:06;12.20;12.20;10.60
29460;PMS7003;16428;47.836;35.106;2023-05-27T13:42:35;18.00;15.60;11.20
29460;PMS7003;16428;47.836;35.106;2023-05-27T13:45:03;14.60;11.80;9.00
29460;PMS7003;16428;47.836;35.106;2023-05-27T13:47:31;9.40;7.80;7.00
29460;PMS7003;16428;47.836;35.106;2023-05-27T13:49:58;9.00;8.00;5.80
29460;PMS7003;16428;47.836;35.106;2023-05-27T13:52:25;8.60;6.80;5.80
29460;PMS7003;16428;47.836;35.106;2023-05-27T13:54:53;8.80;7.00;5.40
29460;PMS7003;16428;47.836;35.106;2023-05-27T13:57:20;6.20;6.20;5.40
29460;PMS7003;16428;47.836;35.106;2023-05-27T13:59:48;8.80;8.40;6.60
29460;PMS7003;16428;47.836;35.106;2023-05-27T14:02:15;42.75;34.00;22.00
29460;PMS7003;16428;47.836;35.106;2023-05-27T14:04:42;25.40;24.40;18.00
29460;PMS7003;16428;47.836;35.106;2023-05-27T14:07:10;18.60;17.60;13.60
29460;PMS7003;16428;47.836;35.106;2023-05-27T14:09:38;22.00;22.00;16.60